Time;durP1;ratioP1;P1;durP2;ratioP2;P2;SDS_P1;SDS_P2;PMS_P1;PMS_P2;Temp;Humidity;BMP_temperature;BMP_pressure;BME280_temperature;BME280_humidity;BME280_pressure;Samples;Min_cycle;Max_cycle;Signal;HPM_P1;HPM_P2
2024/03/08 00:00:12;;;;;;;;;;;;;;;3.73;100.00;99973.19;5114106;28;867;-62
2024/03/08 00:02:39;;;;;;;;;;;;;;;3.71;100.00;99983.69;5114044;28;966;-62
2024/03/08 00:05:06;;;;;;;;;;;;;;;3.71;100.00;99972.75;5095650;28;1329;-63
2024/03/08 00:07:33;;;;;;;;;;;;;;;3.71;100.00;99967.28;5113868;28;1310;-62
2024/03/08 00:09:59;;;;;;;;;;;;;;;3.70;100.00;99973.91;5113943;28;875;-62
2024/03/08 00:12:26;;;;;;;;;;;;;;;3.71;100.00;99978.22;5113813;28;868;-62
2024/03/08 00:14:54;;;;;;;;;;;;;;;3.68;100.00;99977.00;5113987;28;815;-62
2024/03/08 00:17:24;;;;;;;;;;;;;;;3.71;100.00;99977.44;5113690;28;1905;-62
2024/03/08 00:19:51;;;;;;;;;;;;;;;3.71;100.00;99978.22;5095518;28;1235;-62
2024/03/08 00:22:18;;;;;;;;;;;;;;;3.72;100.00;99979.81;5113711;28;828;-62
2024/03/08 00:24:45;;;;;;;;;;;;;;;3.75;100.00;99981.06;5113584;28;828;-62
2024/03/08 00:27:12;;;;;;;;;;;;;;;3.75;100.00;99972.84;5113614;28;926;-62
2024/03/08 00:29:38;;;;;;;;;;;;;;;3.72;100.00;99971.63;5113540;28;855;-62
2024/03/08 00:32:05;;;;;;;;;;;;;;;3.71;100.00;99963.75;5113648;28;831;-62
2024/03/08 00:34:32;;;;;;;;;;;;;;;3.70;100.00;99964.94;5113595;28;843;-62
2024/03/08 00:36:58;;;;;;;;;;;;;;;3.69;100.00;99958.63;5113381;28;1882;-62
2024/03/08 00:39:25;;;;;;;;;;;;;;;3.65;100.00;99955.03;5112898;28;922;-62
2024/03/08 00:41:52;;;;;;;;;;;;;;;3.64;100.00;99956.97;5113024;28;832;-62
2024/03/08 00:44:18;;;;;;;;;;;;;;;3.64;100.00;99953.44;5113230;28;823;-62
2024/03/08 00:46:45;;;;;;;;;;;;;;;3.59;100.00;99956.44;5113269;28;824;-61
2024/03/08 00:49:12;;;;;;;;;;;;;;;3.58;100.00;99963.84;5113191;28;831;-61
2024/03/08 00:51:39;;;;;;;;;;;;;;;3.59;100.00;99953.72;5113185;28;918;-61
2024/03/08 00:54:05;;;;;;;;;;;;;;;3.57;100.00;99947.81;5113051;28;870;-62
2024/03/08 00:56:33;;;;;;;;;;;;;;;3.56;100.00;99952.47;5112978;28;1936;-62
2024/03/08 00:59:00;;;;;;;;;;;;;;;3.54;100.00;99951.22;5094765;28;1187;-62
2024/03/08 01:01:26;;;;;;;;;;;;;;;3.54;100.00;99948.50;5094634;28;1294;-62
2024/03/08 01:03:52;;;;;;;;;;;;;;;3.52;100.00;99943.41;5113116;28;989;-62
2024/03/08 01:06:19;;;;;;;;;;;;;;;3.52;100.00;99934.38;5090756;28;1290;-62
2024/03/08 01:08:46;;;;;;;;;;;;;;;3.52;100.00;99940.66;5092607;28;948;-62
2024/03/08 01:11:15;;;;;;;;;;;;;;;3.50;100.00;99944.88;5092385;28;823;-61
2024/03/08 01:13:42;;;;;;;;;;;;;;;3.50;100.00;99939.41;5092520;28;889;-61
2024/03/08 01:16:08;;;;;;;;;;;;;;;3.50;100.00;99944.88;5092272;28;1961;-63
2024/03/08 01:18:35;;;;;;;;;;;;;;;3.51;100.00;99930.88;5092637;28;886;-62
2024/03/08 01:21:02;;;;;;;;;;;;;;;3.50;100.00;99945.69;5092709;28;795;-62
2024/03/08 01:23:29;;;;;;;;;;;;;;;3.50;100.00;99945.69;5092213;28;876;-62
2024/03/08 01:25:58;;;;;;;;;;;;;;;3.53;100.00;99946.91;5092241;28;944;-62
2024/03/08 01:28:25;;;;;;;;;;;;;;;3.53;100.00;99944.19;5092120;28;879;-62
2024/03/08 01:30:55;;;;;;;;;;;;;;;3.52;100.00;99940.66;5092181;28;837;-61
2024/03/08 01:33:25;;;;;;;;;;;;;;;3.54;100.00;99951.22;5092146;28;799;-62
2024/03/08 01:35:52;;;;;;;;;;;;;;;3.54;100.00;99934.81;5092107;28;1885;-62
2024/03/08 01:38:19;;;;;;;;;;;;;;;3.56;100.00;99941.53;5091972;28;858;-62
2024/03/08 01:40:44;;;;;;;;;;;;;;;3.61;100.00;99938.56;5091121;28;1356;-61
2024/03/08 01:43:20;;;;;;;;;;;;;;;3.62;100.00;99937.38;5091905;28;913;-61
2024/03/08 01:45:47;;;;;;;;;;;;;;;3.63;100.00;99938.19;5091949;28;930;-62
2024/03/08 01:48:14;;;;;;;;;;;;;;;3.64;100.00;99940.56;5091875;28;839;-61
2024/03/08 01:50:41;;;;;;;;;;;;;;;3.67;100.00;99936.34;5090490;28;886;-61
2024/03/08 01:53:15;;;;;;;;;;;;;;;3.64;100.00;99937.84;5091848;28;812;-61
2024/03/08 01:55:42;;;;;;;;;;;;;;;3.64;100.00;99934.31;5091879;28;1974;-62
2024/03/08 01:58:09;;;;;;;;;;;;;;;3.62;100.00;99939.34;5090459;28;1281;-62
2024/03/08 02:00:36;;;;;;;;;;;;;;;3.57;100.00;99939.59;5090395;28;1313;-62
2024/03/08 02:03:03;;;;;;;;;;;;;;;3.55;100.00;99956.34;5091758;28;945;-61
2024/03/08 02:05:30;;;;;;;;;;;;;;;3.54;100.00;99953.97;5092568;28;1259;-62
2024/03/08 02:07:56;;;;;;;;;;;;;;;3.53;100.00;99952.38;5112110;28;819;-61
2024/03/08 02:10:23;;;;;;;;;;;;;;;3.49;100.00;99946.81;5111926;28;853;-61
2024/03/08 02:12:50;;;;;;;;;;;;;;;3.48;100.00;99946.03;5112292;28;824;-61
2024/03/08 02:15:17;;;;;;;;;;;;;;;3.48;100.00;99946.03;5093732;28;1310;-62
2024/03/08 02:17:43;;;;;;;;;;;;;;;3.45;100.00;99952.19;5111837;28;890;-62
2024/03/08 02:20:13;;;;;;;;;;;;;;;3.48;100.00;99954.22;5111987;28;859;-62
2024/03/08 02:22:39;;;;;;;;;;;;;;;3.47;100.00;99955.38;5093510;28;1301;-62
2024/03/08 02:25:05;;;;;;;;;;;;;;;3.47;100.00;99958.09;5112158;28;845;-62
2024/03/08 02:27:32;;;;;;;;;;;;;;;3.47;100.00;99960.81;5112093;28;823;-62
2024/03/08 02:29:59;;;;;;;;;;;;;;;3.46;100.00;99956.53;5111808;28;840;-61
2024/03/08 02:32:26;;;;;;;;;;;;;;;3.47;100.00;99960.03;5111778;28;847;-62
2024/03/08 02:34:56;;;;;;;;;;;;;;;3.46;100.00;99964.72;5093519;28;1175;-61
2024/03/08 02:37:22;;;;;;;;;;;;;;;3.47;100.00;99957.31;5111571;28;1881;-62
2024/03/08 02:39:50;;;;;;;;;;;;;;;3.44;100.00;99955.28;5111745;28;882;-62
2024/03/08 02:42:17;;;;;;;;;;;;;;;3.44;100.00;99947.09;5112032;28;917;-62
2024/03/08 02:44:44;;;;;;;;;;;;;;;3.44;100.00;99958.81;5111600;28;918;-62
2024/03/08 02:47:10;;;;;;;;;;;;;;;3.43;100.00;99953.69;5111859;28;906;-61
2024/03/08 02:49:37;;;;;;;;;;;;;;;3.44;100.00;99944.34;5111566;28;1040;-61
2024/03/08 02:52:04;;;;;;;;;;;;;;;3.42;100.00;99950.16;5111586;28;839;-61
2024/03/08 02:54:31;;;;;;;;;;;;;;;3.42;100.00;99950.16;5111665;28;847;-61
2024/03/08 02:56:57;;;;;;;;;;;;;;;3.43;100.00;99954.47;5111602;28;1881;-62
2024/03/08 02:59:24;;;;;;;;;;;;;;;3.43;100.00;99949.00;5111537;28;859;-61
2024/03/08 03:01:51;;;;;;;;;;;;;;;3.44;100.00;99950.59;5111755;28;744;-62
2024/03/08 03:04:17;;;;;;;;;;;;;;;3.44;100.00;99941.63;5113891;28;807;-62
2024/03/08 03:06:44;;;;;;;;;;;;;;;3.44;100.00;99936.16;5115011;28;1107;-63
2024/03/08 03:09:10;;;;;;;;;;;;;;;3.43;100.00;99946.28;5115156;28;970;-61
2024/03/08 03:11:37;;;;;;;;;;;;;;;3.45;100.00;99938.53;5096871;28;1199;-62
2024/03/08 03:14:04;;;;;;;;;;;;;;;3.45;100.00;99937.72;5096776;28;1295;-62
2024/03/08 03:16:31;;;;;;;;;;;;;;;3.45;100.00;99929.53;5114962;28;1977;-61
2024/03/08 03:18:58;;;;;;;;;;;;;;;3.47;100.00;99938.19;5114879;28;848;-61
2024/03/08 03:21:28;;;;;;;;;;;;;;;3.49;100.00;99927.69;5115027;28;816;-61
2024/03/08 03:23:54;;;;;;;;;;;;;;;3.50;100.00;99945.69;5096593;28;1269;-61
2024/03/08 03:26:21;;;;;;;;;;;;;;;3.54;100.00;99937.56;5114927;28;864;-62
2024/03/08 03:28:48;;;;;;;;;;;;;;;3.54;100.00;99937.56;5114786;28;879;-61
2024/03/08 03:31:14;;;;;;;;;;;;;;;3.53;100.00;99931.31;5096332;28;1444;-61
2024/03/08 03:33:41;;;;;;;;;;;;;;;3.53;100.00;99931.31;5096481;28;1302;-61
2024/03/08 03:36:09;;;;;;;;;;;;;;;3.54;100.00;99932.91;5114579;28;1939;-61
2024/03/08 03:38:36;;;;;;;;;;;;;;;3.54;100.00;99932.09;5114637;28;882;-61
2024/03/08 03:41:09;;;;;;;;;;;;;;;3.51;100.00;99930.88;5114597;28;858;-61
2024/03/08 03:43:39;;;;;;;;;;;;;;;3.51;100.00;99949.22;5096250;28;1206;-62
2024/03/08 03:46:07;;;;;;;;;;;;;;;3.50;100.00;99934.75;5114638;28;878;-61
2024/03/08 03:48:33;;;;;;;;;;;;;;;3.52;100.00;99939.84;5114447;28;874;-61
2024/03/08 03:51:00;;;;;;;;;;;;;;;3.50;100.00;99942.97;5114311;28;875;-61
2024/03/08 03:53:27;;;;;;;;;;;;;;;3.48;100.00;99945.25;5095927;28;1191;-61
2024/03/08 03:55:54;;;;;;;;;;;;;;;3.47;100.00;99941.69;5114154;28;1886;-61
2024/03/08 03:58:22;;;;;;;;;;;;;;;3.47;100.00;99944.44;5095835;28;1214;-62
2024/03/08 04:00:49;;;;;;;;;;;;;;;3.50;100.00;99940.22;5114217;28;874;-61
2024/03/08 04:03:16;;;;;;;;;;;;;;;3.49;100.00;99944.09;5095778;28;1227;-62
2024/03/08 04:05:43;;;;;;;;;;;;;;;3.48;100.00;99942.50;5113976;28;1208;-62
2024/03/08 04:08:09;;;;;;;;;;;;;;;3.47;100.00;99941.69;5095538;28;1428;-61
2024/03/08 04:10:36;;;;;;;;;;;;;;;3.47;100.00;99938.97;5114113;28;906;-61
2024/03/08 04:13:02;;;;;;;;;;;;;;;3.48;100.00;99947.97;5095627;28;1313;-61
2024/03/08 04:15:30;;;;;;;;;;;;;;;3.47;100.00;99954.56;5095433;28;1914;-61
2024/03/08 04:17:57;;;;;;;;;;;;;;;3.48;100.00;99948.75;5113782;28;922;-61
2024/03/08 04:20:23;;;;;;;;;;;;;;;3.51;100.00;99946.47;5113698;28;910;-61
2024/03/08 04:22:49;;;;;;;;;;;;;;;3.49;100.00;99955.03;5113714;28;831;-61
2024/03/08 04:25:17;;;;;;;;;;;;;;;3.49;100.00;99946.81;5113569;28;866;-61
2024/03/08 04:27:44;;;;;;;;;;;;;;;3.51;100.00;99951.94;5113948;28;887;-61
2024/03/08 04:30:11;;;;;;;;;;;;;;;3.50;100.00;99942.13;5113500;28;800;-61
2024/03/08 04:32:37;;;;;;;;;;;;;;;3.49;100.00;99941.34;5113522;28;880;-61
2024/03/08 04:35:04;;;;;;;;;;;;;;;3.51;100.00;99930.09;5095180;28;1282;-60
2024/03/08 04:37:31;;;;;;;;;;;;;;;3.52;100.00;99934.38;5113270;28;1889;-61
2024/03/08 04:39:58;;;;;;;;;;;;;;;3.53;100.00;99923.09;5113384;28;884;-61
2024/03/08 04:42:25;;;;;;;;;;;;;;;3.54;100.00;99923.91;5113271;28;874;-61
2024/03/08 04:44:53;;;;;;;;;;;;;;;3.55;100.00;99928.22;5113321;28;829;-61
2024/03/08 04:47:20;;;;;;;;;;;;;;;3.55;100.00;99930.97;5113146;28;850;-61
2024/03/08 04:49:46;;;;;;;;;;;;;;;3.56;100.00;99929.81;5113229;28;831;-61
2024/03/08 04:52:13;;;;;;;;;;;;;;;3.57;100.00;99942.34;5113149;28;898;-61
2024/03/08 04:54:40;;;;;;;;;;;;;;;3.54;100.00;99949.31;5113390;28;926;-61
2024/03/08 04:57:07;;;;;;;;;;;;;;;3.54;100.00;99943.03;5094628;28;1882;-61
2024/03/08 04:59:33;;;;;;;;;;;;;;;3.54;100.00;99934.81;5113090;28;816;-61
2024/03/08 05:02:00;;;;;;;;;;;;;;;3.54;100.00;99946.56;5112854;28;831;-61
2024/03/08 05:04:27;;;;;;;;;;;;;;;3.53;100.00;99947.72;5112969;28;883;-61
2024/03/08 05:06:54;;;;;;;;;;;;;;;3.55;100.00;99945.41;5112636;28;1359;-61
2024/03/08 05:09:21;;;;;;;;;;;;;;;3.53;100.00;99955.13;5094648;28;1199;-60
2024/03/08 05:11:47;;;;;;;;;;;;;;;3.53;100.00;99950.44;5112705;28;902;-61
2024/03/08 05:14:19;;;;;;;;;;;;;;;3.53;100.00;99966.06;5112994;28;811;-61
2024/03/08 05:16:48;;;;;;;;;;;;;;;3.54;100.00;99964.91;5112556;28;1905;-61
2024/03/08 05:19:18;;;;;;;;;;;;;;;3.52;100.00;99973.47;5112673;28;860;-60
2024/03/08 05:21:45;;;;;;;;;;;;;;;3.49;100.00;99968.69;5112713;28;1197;-61
2024/03/08 05:24:13;;;;;;;;;;;;;;;3.46;100.00;99972.13;5112672;28;894;-61
2024/03/08 05:26:40;;;;;;;;;;;;;;;3.44;100.00;99969.75;5094035;28;1179;-60
2024/03/08 05:29:06;;;;;;;;;;;;;;;3.42;100.00;99977.50;5112737;28;1241;-60
2024/03/08 05:31:49;;;;;;;;;;;;;;;3.39;100.00;99978.19;5094278;28;1325;-61
2024/03/08 05:34:16;;;;;;;;;;;;;;;3.40;100.00;99979.00;5094126;28;1325;-61
2024/03/08 05:36:46;;;;;;;;;;;;;;;3.40;100.00;99985.25;5112287;28;1967;-60
2024/03/08 05:39:13;;;;;;;;;;;;;;;3.38;100.00;99993.00;5112327;28;859;-61
2024/03/08 05:41:40;;;;;;;;;;;;;;;3.36;100.00;99984.34;5112582;28;855;-61
2024/03/08 05:44:06;;;;;;;;;;;;;;;3.37;100.00;99990.59;5112230;28;831;-60
2024/03/08 05:46:32;;;;;;;;;;;;;;;3.36;100.00;99987.09;5112253;28;827;-61
2024/03/08 05:48:59;;;;;;;;;;;;;;;3.37;100.00;99994.16;5094013;28;1246;-61
2024/03/08 05:51:28;;;;;;;;;;;;;;;3.42;100.00;99996.63;5112156;28;907;-61
2024/03/08 05:53:56;;;;;;;;;;;;;;;3.42;100.00;100002.09;5112221;28;836;-61
2024/03/08 05:56:23;;;;;;;;;;;;;;;3.42;100.00;99999.34;5111951;28;1886;-61
2024/03/08 05:58:50;;;;;;;;;;;;;;;3.47;100.00;100003.75;5112152;28;784;-60
2024/03/08 06:01:16;;;;;;;;;;;;;;;3.52;100.00;100011.72;5111989;28;874;-61
2024/03/08 06:03:47;;;;;;;;;;;;;;;3.61;100.00;100008.81;5112012;28;839;-61
2024/03/08 06:06:14;;;;;;;;;;;;;;;3.68;100.00;100009.00;5090269;28;1242;-61
2024/03/08 06:08:42;;;;;;;;;;;;;;;3.76;100.00;100013.50;5091884;28;902;-61
2024/03/08 06:11:09;;;;;;;;;;;;;;;3.86;100.00;100004.81;5091597;28;914;-61
2024/03/08 06:13:36;;;;;;;;;;;;;;;3.92;100.00;100020.94;5091583;28;876;-61
2024/03/08 06:16:04;;;;;;;;;;;;;;;3.94;100.00;100029.59;5091625;28;1965;-61
2024/03/08 06:18:31;;;;;;;;;;;;;;;3.96;100.00;100019.88;5091571;28;882;-61
2024/03/08 06:20:57;;;;;;;;;;;;;;;4.01;100.00;100014.16;5091757;28;804;-61
2024/03/08 06:23:24;;;;;;;;;;;;;;;4.03;100.00;100024.72;5091491;28;867;-62
2024/03/08 06:25:50;;;;;;;;;;;;;;;4.04;100.00;100029.06;5091981;28;772;-62
2024/03/08 06:28:17;;;;;;;;;;;;;;;4.06;100.00;100024.03;5091541;28;880;-61
2024/03/08 06:30:44;;;;;;;;;;;;;;;4.10;100.00;100013.97;5091690;28;886;-62
2024/03/08 06:33:10;;;;;;;;;;;;;;;4.13;100.00;100024.19;5091561;28;819;-61
2024/03/08 06:35:40;;;;;;;;;;;;;;;4.12;100.00;100021.81;5091660;28;1889;-62
2024/03/08 06:38:06;;;;;;;;;;;;;;;4.15;100.00;100021.91;5091972;28;886;-62
2024/03/08 06:40:33;;;;;;;;;;;;;;;4.19;100.00;100024.75;5095354;28;815;-63
2024/03/08 06:42:59;;;;;;;;;;;;;;;4.13;100.00;100026.94;5094021;28;1290;-62
2024/03/08 06:45:26;;;;;;;;;;;;;;;4.17;100.00;100040.72;5095387;28;851;-63
2024/03/08 06:47:52;;;;;;;;;;;;;;;4.19;100.00;100032.94;5095523;28;835;-63
2024/03/08 06:50:18;;;;;;;;;;;;;;;4.17;100.00;100038.75;5095347;28;821;-63
2024/03/08 06:52:47;;;;;;;;;;;;;;;4.16;100.00;100037.19;5095524;28;1224;-63
2024/03/08 06:55:14;;;;;;;;;;;;;;;4.29;100.00;100044.16;5095135;28;847;-63
2024/03/08 06:57:41;;;;;;;;;;;;;;;4.40;100.00;100040.88;5094987;28;1881;-64
2024/03/08 07:00:13;;;;;;;;;;;;;;;4.46;100.00;100039.47;5095365;28;819;-61
2024/03/08 07:02:42;;;;;;;;;;;;;;;4.45;100.00;100044.13;5094860;28;847;-61
2024/03/08 07:05:10;;;;;;;;;;;;;;;4.37;100.00;100036.09;5095006;28;985;-61
2024/03/08 07:07:37;;;;;;;;;;;;;;;4.41;100.00;100043.25;5112734;28;1486;-61
2024/03/08 07:10:04;;;;;;;;;;;;;;;4.32;100.00;100050.06;5115273;28;807;-61
2024/03/08 07:12:30;;;;;;;;;;;;;;;4.24;100.00;100049.09;5114987;28;848;-61
2024/03/08 07:14:56;;;;;;;;;;;;;;;4.26;100.00;100047.56;5115115;28;796;-62
2024/03/08 07:17:24;;;;;;;;;;;;;;;4.32;100.00;100048.13;5114913;28;1972;-62
2024/03/08 07:19:50;;;;;;;;;;;;;;;4.23;100.00;100045.56;5114954;28;843;-62
2024/03/08 07:22:17;;;;;;;;;;;;;;;4.23;100.00;100037.34;5115273;28;832;-62
2024/03/08 07:25:10;;;;;;;;;;;;;;;4.23;100.00;100042.81;5114777;28;867;-62
2024/03/08 07:27:36;;;;;;;;;;;;;;;4.19;100.00;100044.69;5114534;28;1073;-62
2024/03/08 07:30:03;;;;;;;;;;;;;;;4.17;100.00;100040.72;5114770;28;839;-62
2024/03/08 07:32:29;;;;;;;;;;;;;;;4.13;100.00;100037.88;5114714;28;978;-61
2024/03/08 07:34:56;;;;;;;;;;;;;;;4.08;100.00;100032.69;5114726;28;823;-62
2024/03/08 07:37:23;;;;;;;;;;;;;;;3.92;100.00;100038.13;5114540;28;1949;-62
2024/03/08 07:39:50;;;;;;;;;;;;;;;3.80;100.00;100039.00;5096323;28;1297;-61
2024/03/08 07:42:16;;;;;;;;;;;;;;;3.65;100.00;100034.31;5114484;28;831;-63
2024/03/08 07:44:43;;;;;;;;;;;;;;;3.59;100.00;100032.97;5096307;28;1203;-62
2024/03/08 07:47:10;;;;;;;;;;;;;;;3.54;100.00;100039.50;5114392;28;800;-62
2024/03/08 07:49:39;;;;;;;;;;;;;;;3.50;100.00;100018.66;5114366;28;843;-61
2024/03/08 07:52:07;;;;;;;;;;;;;;;3.46;100.00;100030.31;5114343;28;964;-61
2024/03/08 07:54:34;;;;;;;;;;;;;;;3.51;100.00;100042.13;5114369;28;851;-61
2024/03/08 07:57:03;;;;;;;;;;;;;;;3.50;100.00;100026.84;5114123;28;1949;-60
2024/03/08 07:59:30;;;;;;;;;;;;;;;3.53;100.00;100026.19;5114259;28;851;-61
2024/03/08 08:01:57;;;;;;;;;;;;;;;3.56;100.00;100039.91;5114379;28;891;-61
2024/03/08 08:04:24;;;;;;;;;;;;;;;3.59;100.00;100041.19;5114227;28;807;-62
2024/03/08 08:06:51;;;;;;;;;;;;;;;3.62;100.00;100043.22;5113850;28;1317;-63
2024/03/08 08:09:28;;;;;;;;;;;;;;;3.67;100.00;100064.84;5114028;28;871;-62
2024/03/08 08:11:55;;;;;;;;;;;;;;;3.65;100.00;100037.06;5114094;28;867;-63
2024/03/08 08:14:21;;;;;;;;;;;;;;;3.62;100.00;100043.22;5113905;28;941;-63
2024/03/08 08:16:50;;;;;;;;;;;;;;;3.62;100.00;100056.88;5113876;28;1964;-63
2024/03/08 08:19:16;;;;;;;;;;;;;;;3.65;100.00;100051.50;5113849;28;804;-63
2024/03/08 08:21:43;;;;;;;;;;;;;;;3.66;100.00;100027.69;5095535;28;1310;-62
2024/03/08 08:24:10;;;;;;;;;;;;;;;3.62;100.00;100056.88;5113757;28;859;-62
2024/03/08 08:26:37;;;;;;;;;;;;;;;3.59;100.00;100049.38;5113622;28;986;-63
2024/03/08 08:29:04;;;;;;;;;;;;;;;3.63;100.00;100059.25;5113746;28;897;-63
2024/03/08 08:31:31;;;;;;;;;;;;;;;3.62;100.00;100060.38;5113547;28;902;-63
2024/03/08 08:33:58;;;;;;;;;;;;;;;3.67;100.00;100059.38;5113665;28;910;-63
2024/03/08 08:36:24;;;;;;;;;;;;;;;3.65;100.00;100059.72;5113392;28;1943;-62
2024/03/08 08:38:54;;;;;;;;;;;;;;;3.65;100.00;100061.66;5113572;28;846;-62
2024/03/08 08:41:21;;;;;;;;;;;;;;;3.64;100.00;100058.09;5113556;28;894;-63
2024/03/08 08:43:49;;;;;;;;;;;;;;;3.65;100.00;100058.94;5095126;28;1195;-63
2024/03/08 08:46:18;;;;;;;;;;;;;;;3.66;100.00;100050.34;5113188;28;882;-63
2024/03/08 08:48:45;;;;;;;;;;;;;;;3.67;100.00;100048.44;5113402;28;879;-62
2024/03/08 08:51:12;;;;;;;;;;;;;;;3.67;100.00;100051.97;5094855;28;1302;-63
2024/03/08 08:53:42;;;;;;;;;;;;;;;3.76;100.00;100061.94;5113368;28;831;-63
2024/03/08 08:56:15;;;;;;;;;;;;;;;3.82;100.00;100065.97;5113300;28;1885;-63
2024/03/08 08:58:45;;;;;;;;;;;;;;;3.80;100.00;100060.88;5113171;28;886;-63
2024/03/08 09:01:11;;;;;;;;;;;;;;;3.82;100.00;100055.03;5112630;28;838;-65
2024/03/08 09:03:37;;;;;;;;;;;;;;;3.83;100.00;100065.66;5094727;28;1171;-64
2024/03/08 09:06:10;;;;;;;;;;;;;;;3.81;100.00;100064.41;5090996;28;1307;-63
2024/03/08 09:08:37;;;;;;;;;;;;;;;3.74;100.00;100059.56;5092675;28;875;-63
2024/03/08 09:11:05;;;;;;;;;;;;;;;3.76;100.00;100054.53;5092421;28;860;-64
2024/03/08 09:13:33;;;;;;;;;;;;;;;3.77;100.00;100069.00;5092556;28;799;-62
2024/03/08 09:16:00;;;;;;;;;;;;;;;3.76;100.00;100065.47;5092333;28;1913;-63
2024/03/08 09:18:26;;;;;;;;;;;;;;;3.81;100.00;100058.94;5092302;28;828;-65
2024/03/08 09:20:53;;;;;;;;;;;;;;;3.85;100.00;100068.81;5092305;28;824;-66
2024/03/08 09:23:20;;;;;;;;;;;;;;;3.91;100.00;100065.84;5092283;28;846;-65
2024/03/08 09:25:47;;;;;;;;;;;;;;;3.89;100.00;100066.97;5092284;28;891;-63
2024/03/08 09:28:14;;;;;;;;;;;;;;;3.86;100.00;100067.69;5092266;28;839;-63
2024/03/08 09:30:40;;;;;;;;;;;;;;;3.99;100.00;100062.13;5092128;28;1038;-63
2024/03/08 09:33:07;;;;;;;;;;;;;;;4.05;100.00;100063.47;5092098;28;812;-63
2024/03/08 09:35:33;;;;;;;;;;;;;;;4.03;100.00;100080.25;5092060;28;864;-63
2024/03/08 09:38:00;;;;;;;;;;;;;;;4.00;100.00;100071.94;5092018;28;855;-62
2024/03/08 09:40:28;;;;;;;;;;;;;;;4.02;100.00;100075.91;5092026;28;977;-62
2024/03/08 10:15:46;;;;;;;;;;;;;;;4.48;100.00;100068.06;5034640;28;1898;-60
2024/03/08 10:18:12;;;;;;;;;;;;;;;4.52;100.00;100057.19;5055885;28;911;-59
2024/03/08 10:20:39;;;;;;;;;;;;;;;4.50;100.00;100073.16;5055678;28;1063;-60
2024/03/08 10:23:08;;;;;;;;;;;;;;;4.53;100.00;100068.94;5056107;28;815;-59
2024/03/08 10:25:35;;;;;;;;;;;;;;;4.54;100.00;100059.56;5055315;28;914;-58
2024/03/08 10:28:04;;;;;;;;;;;;;;;4.54;100.00;100070.53;5055483;28;1277;-62
2024/03/08 10:30:32;;;;;;;;;;;;;;;4.46;100.00;100072.31;5055241;28;949;-60
2024/03/08 10:32:59;;;;;;;;;;;;;;;4.43;100.00;100073.00;5055174;28;875;-61
2024/03/08 10:35:26;;;;;;;;;;;;;;;4.35;100.00;100082.19;5055158;28;896;-57
2024/03/08 10:38:00;;;;;;;;;;;;;;;4.42;100.00;100057.75;5055039;28;1910;-60
2024/03/08 10:40:27;;;;;;;;;;;;;;;4.56;100.00;100062.75;5055121;28;954;-58
2024/03/08 10:42:54;;;;;;;;;;;;;;;4.51;100.00;100052.88;5055155;28;800;-58
2024/03/08 10:45:23;;;;;;;;;;;;;;;4.48;100.00;100062.59;5055186;28;859;-58
2024/03/08 10:47:49;;;;;;;;;;;;;;;4.55;100.00;100067.44;5054857;28;930;-58
2024/03/08 10:50:21;;;;;;;;;;;;;;;4.56;100.00;100055.31;5054969;28;864;-58
2024/03/08 10:52:49;;;;;;;;;;;;;;;4.50;100.00;100073.16;5054894;28;876;-59
2024/03/08 10:55:16;;;;;;;;;;;;;;;4.43;100.00;100049.16;5054887;28;820;-59
2024/03/08 10:57:43;;;;;;;;;;;;;;;4.45;100.00;100052.34;5054719;28;1886;-60
2024/03/08 11:00:11;;;;;;;;;;;;;;;4.54;100.00;100062.31;5054724;28;840;-60
2024/03/08 11:02:38;;;;;;;;;;;;;;;4.45;100.00;100066.03;5054906;28;1304;-60
2024/03/08 11:05:05;;;;;;;;;;;;;;;4.43;100.00;100059.31;5055235;28;826;-60
2024/03/08 11:07:37;;;;;;;;;;;;;;;4.52;100.00;100065.38;5054747;28;1190;-60
2024/03/08 11:10:10;;;;;;;;;;;;;;;4.59;100.00;100053.84;5054418;28;993;-60
2024/03/08 11:12:37;;;;;;;;;;;;;;;4.56;100.00;100065.47;5054861;28;957;-60
2024/03/08 11:15:13;;;;;;;;;;;;;;;4.43;100.00;100070.25;5054467;28;843;-60
2024/03/08 11:17:39;;;;;;;;;;;;;;;4.53;100.00;100071.69;5014633;28;1918;-60
2024/03/08 11:20:15;;;;;;;;;;;;;;;4.45;100.00;100073.44;5014530;28;910;-60
2024/03/08 11:23:02;;;;;;;;;;;;;;;4.47;100.00;100068.41;5014535;28;875;-59
2024/03/08 11:25:39;;;;;;;;;;;;;;;4.43;100.00;100071.06;5027536;28;1881;-60
2024/03/08 11:28:16;;;;;;;;;;;;;;;4.43;100.00;100076.53;5034182;28;921;-59
2024/03/08 11:30:44;;;;;;;;;;;;;;;4.36;100.00;100081.06;5034177;28;845;-59
2024/03/08 11:33:14;;;;;;;;;;;;;;;4.38;100.00;100085.00;5034163;28;816;-60
2024/03/08 11:35:42;;;;;;;;;;;;;;;4.47;100.00;100087.56;5034253;28;1941;-60
2024/03/08 11:38:09;;;;;;;;;;;;;;;4.49;100.00;100097.00;5034251;28;975;-60
2024/03/08 11:40:35;;;;;;;;;;;;;;;4.61;100.00;100095.31;5033999;28;868;-61
2024/03/08 11:43:06;;;;;;;;;;;;;;;4.58;100.00;100083.13;5034095;28;892;-61
2024/03/08 11:45:36;;;;;;;;;;;;;;;4.67;100.00;100105.66;5034075;28;836;-61
2024/03/08 11:48:03;;;;;;;;;;;;;;;4.60;100.00;100102.75;5033893;28;935;-61
2024/03/08 11:50:32;;;;;;;;;;;;;;;4.75;100.00;100095.66;5033730;28;965;-62
2024/03/08 11:53:04;;;;;;;;;;;;;;;4.88;100.00;100093.59;5033865;28;808;-62
2024/03/08 11:55:35;;;;;;;;;;;;;;;5.00;100.00;100098.19;5033855;28;868;-62
2024/03/08 11:58:04;;;;;;;;;;;;;;;5.30;100.00;100095.69;5033912;28;1866;-62
2024/03/08 12:00:38;;;;;;;;;;;;;;;5.41;100.00;100099.44;5033757;28;832;-62
2024/03/08 12:03:06;;;;;;;;;;;;;;;5.40;100.00;100105.28;5033521;28;860;-62
2024/03/08 12:05:35;;;;;;;;;;;;;;;5.46;100.00;100101.09;5033594;28;1176;-63
2024/03/08 12:08:02;;;;;;;;;;;;;;;5.65;100.00;100100.31;5033569;28;828;-64
2024/03/08 12:10:30;;;;;;;;;;;;;;;5.84;100.00;100094.00;5033460;28;808;-63
2024/03/08 12:12:59;;;;;;;;;;;;;;;5.70;100.00;100095.34;5033832;28;927;-62
2024/03/08 12:15:25;;;;;;;;;;;;;;;5.48;100.00;100099.59;5035636;28;1244;-61
2024/03/08 12:17:53;;;;;;;;;;;;;;;5.44;100.00;100092.44;5053198;28;1910;-61
2024/03/08 12:20:24;;;;;;;;;;;;;;;5.47;100.00;100094.47;5053865;28;1031;-63
2024/03/08 12:22:53;;;;;;;;;;;;;;;5.44;100.00;100097.94;5053184;28;1044;-60
2024/03/08 12:25:20;;;;;;;;;;;;;;;5.33;100.00;100105.94;5035549;28;867;-62
2024/03/08 12:27:46;;;;;;;;;;;;;;;5.29;100.00;100110.53;5052942;28;869;-61
2024/03/08 12:30:24;;;;;;;;;;;;;;;5.21;100.00;100108.81;5035389;28;859;-59
2024/03/08 12:32:54;;;;;;;;;;;;;;;5.07;100.00;100107.34;5052987;28;879;-58
2024/03/08 12:35:22;;;;;;;;;;;;;;;5.03;100.00;100097.47;5052460;28;883;-58
2024/03/08 12:37:50;;;;;;;;;;;;;;;5.01;100.00;100089.59;5034708;28;1957;-51
2024/03/08 12:40:17;;;;;;;;;;;;;;;4.99;100.00;100089.16;5053109;28;847;-49
2024/03/08 12:42:47;;;;;;;;;;;;;;;4.97;100.00;100088.75;5035236;28;1626;-49
2024/03/08 12:45:14;;;;;;;;;;;;;;;5.03;100.00;100091.97;5052771;28;910;-50
2024/03/08 12:47:41;;;;;;;;;;;;;;;5.02;100.00;100082.19;5052809;28;823;-51
2024/03/08 12:50:09;;;;;;;;;;;;;;;4.93;100.00;100084.31;5052528;28;919;-48
2024/03/08 12:52:36;;;;;;;;;;;;;;;4.94;100.00;100086.69;5052568;28;942;-49
2024/03/08 12:55:03;;;;;;;;;;;;;;;4.95;100.00;100080.09;5052434;28;923;-47
2024/03/08 12:57:29;;;;;;;;;;;;;;;4.94;100.00;100083.97;5052534;28;1945;-48
2024/03/08 12:59:56;;;;;;;;;;;;;;;4.99;100.00;100089.16;5052777;28;882;-50
2024/03/08 13:02:22;;;;;;;;;;;;;;;4.95;100.00;100091.03;5052697;28;981;-51
2024/03/08 13:04:57;;;;;;;;;;;;;;;4.97;100.00;100091.47;5052495;28;824;-50
2024/03/08 13:07:25;;;;;;;;;;;;;;;4.89;100.00;100104.22;5052322;28;856;-47
2024/03/08 13:09:55;;;;;;;;;;;;;;;4.84;100.00;100098.19;5034691;28;918;-48
2024/03/08 13:12:21;;;;;;;;;;;;;;;4.85;100.00;100105.28;5052637;28;993;-47
2024/03/08 13:14:59;;;;;;;;;;;;;;;4.81;100.00;100107.16;5052467;28;902;-46
2024/03/08 13:17:26;;;;;;;;;;;;;;;4.83;100.00;100102.09;5051927;28;1985;-50
2024/03/08 13:19:57;;;;;;;;;;;;;;;4.85;100.00;100102.53;5052106;28;910;-47
2024/03/08 13:22:24;;;;;;;;;;;;;;;4.88;100.00;100104.56;5052276;28;1130;-47
2024/03/08 13:24:52;;;;;;;;;;;;;;;4.93;100.00;100104.31;5051952;28;947;-47
2024/03/08 13:27:23;;;;;;;;;;;;;;;5.00;100.00;100100.94;5051903;28;1015;-46
2024/03/08 13:29:51;;;;;;;;;;;;;;;4.98;100.00;100100.47;5051917;28;833;-46
2024/03/08 13:32:20;;;;;;;;;;;;;;;4.99;100.00;100097.38;5051886;28;879;-47